Airfield :
LOGIN :

Register | Disclaimer

   EN    FR    IT 

 










Legend :    VFR   Marginal VFR   IFR   Intensive IFR   Very Intensive IFR
Visi :
Ceiling :
>= 8 km
>= 3000ft
5 to 8 km
1000 to 3000 ft
1500m to 5 km
500 to 1000 ft
800 to 1500m
200 to 500 ft
< 800m
< 200 ft
Symbols :   Thunderstorms  Fog  Heavy snow  Heavy precipitations  Wind > 20 kt
SIGMETs :     Misc.  Thunderstorms  Icing  Turbulence  Mountain Waves  Volcanic Ashes






- Airport Elevation : 935 ft


EBFS - Florennes

CURRENT METAR :
  • 200955Z VRB02KT 9999 FEW020 12/06 Q1017 BLU BLU

EXPIRED METARs :
  • 200925Z VRB02KT 9999 FEW020 12/05 Q1017 BLU BLU
  • 200855Z VRB02KT 9999 SKC 12/06 Q1017 BLU BLU
  • 200825Z VRB01KT 9999 SKC 11/05 Q1017 BLU BLU
  • 200755Z VRB02KT 9999 SKC 10/06 Q1017 BLU BLU
  • 200752Z VRB02KT 9999 SKC 10/06 Q1017 BLU BLU
  • 200725Z VRB01KT 6000 SKC 09/06 Q1017 WHT WHT BECMG BLU

TAF TAF EBFS
Valid from the 20 at 10:00 until the 20 at 19:00 UTC


200841Z 2010/2019 03003KT 9999 FEW025
PROB30
TEMPO 2012/2016 7000 -SHRA SCT030



MET'MAP, your aeronautical weather chart ! - Copyright ORBIFLY December 2007 - Disclaimer

ORBIFLY MET'MAP TEAM :

Programming & Development : Alexandra Zaïnal
Concept & original design : Baudouin d'Aumeries
Assistance for programming : Marc-Olivier Méhu
Technical & hardware support : Manuel Goepfert

Contact : metmap@orbifly.com




SOURCES & CREDITS :

   NOAA